Pilger, NE (68768)

06:43 PM CDT del 25 Marzo 2017 (GMT -0500)
1 mile South of Wayne | | Change Station

Alt. 1463 ft 42.22 °N, 97.01 °W | Updated 34 seconds ago

Coperto
Coperto
39.4 °F
Sembra 39 °F
N
2.0
Vento Variabile Vento da NNE
Gusts 4.9 mph

Oggi
Massima -- | Minima -- °F
--% Possibilità di precip.
Ieri
Massima -- | Minima -- °F
Precip. -- in
Pressione 29.96 in
Visibilità 5.0 miglia
Nuvole Coperto 700 ft
Raffreddamento del vento 39 °F
Punto di rugiada 39 °F
Umidità 99%
Piovosità 0.00 in
Spessore del manto nevoso Non disponibile.
7:22 AM 7:46 PM
Luna calante, 6% visible
METAR KLCG 252335Z AUTO 03008KT 5SM BR OVC007 04/04 A2996 RMK AO2 T00410040
Pressione 29.96 in
Visibilità 5.0 miglia
Nuvole Coperto 700 ft
Raffreddamento del vento 39 °F
Punto di rugiada 39 °F
Umidità 99%
Piovosità 0.00 in
Spessore del manto nevoso Non disponibile.
7:22 AM 7:46 PM
Luna calante, 6% visible
METAR KLCG 252335Z AUTO 03008KT 5SM BR OVC007 04/04 A2996 RMK AO2 T00410040

Get Severe Weather Alerts

Thanks for signing up!

Be on the lookout for a verification email in your inbox.

You'll start receiving the daily forecast at 8 AM.

×

10-Day Weather Forecast

Almanac

Astronomia

Mar. 25, 2017 Alba Tramonto
Ora attuale
Crepuscolo civile
Crepuscolo nautico
Crepuscolo astronomico
Luna
Estensione della luce visibile
Lunghezza del giorno
Tomorrow will be .
, % of the Moon is Illuminated

Gli estremi di oggi

State Highs State Lows

Community

WunderPhotos

Upload Photos

1,962,540 foto caricate!

WunderBlog® & News

Nearby

Qualità dell'aria

  Qualità dell'aria Indice AQ Inquinante
Not available.

Profondità neve

Stazione Profondità Altitudine

Attività sismica

Città  Distanza Mag. Data & Ora
Minimo Magnitudo Mostrato è 2.5.

Attività sismica

Città  Distanza Mag. Data & Ora
Minimo Magnitudo Mostrato è 2.5.

Temperature delle acque costiere

Località Temperatura

Stations

Stazioni meteo nelle vicinanze

Ubicazione della stazione Temp. Raffreddamento del vento Punto di rugiada Umidità Vento Precip. Alt. Aggiornato Tipo
                   

Watches & Warnings

There are currently no watches in effect.